Terminal Aerodrome Forecast
Issued by NWS

Home | Current Version | Previous Version | Text Only | Print | Product List | Glossary On
Versions: 1 2 3 4 5 6 7 8 9 10 11 12 13 14 15 16 17
059
FTUS42 KMLB 262339
TAFISM
TAF
KISM 262339Z 2700/2724 30005KT P6SM VCSH BKN080 OVC150
     FM270400 19003KT P6SM SCT080 BKN250
     FM271400 27004KT P6SM SCT025 SCT080 BKN250
     FM271800 VRB05KT P6SM VCTS BKN035CB BKN060
      TEMPO 2719/2722 3SM TSRA BKN025CB=

USA.gov is the U.S. government's official web portal to all federal, state and local government web resources and services.